sensor_id;sensor_type;location;lat;lon;timestamp;temperature;humidity
9847;DHT22;68671;50.084;8.794;2024-03-08T00:01:00;6.70;99.90
9847;DHT22;68671;50.084;8.794;2024-03-08T00:03:27;6.60;99.90
9847;DHT22;68671;50.084;8.794;2024-03-08T00:05:54;6.50;99.90
9847;DHT22;68671;50.084;8.794;2024-03-08T00:08:24;6.50;99.90
9847;DHT22;68671;50.084;8.794;2024-03-08T00:10:51;6.50;99.90
9847;DHT22;68671;50.084;8.794;2024-03-08T00:13:18;6.40;99.90
9847;DHT22;68671;50.084;8.794;2024-03-08T00:15:45;6.40;99.90
9847;DHT22;68671;50.084;8.794;2024-03-08T00:18:12;6.40;99.90
9847;DHT22;68671;50.084;8.794;2024-03-08T00:20:39;6.30;99.90
9847;DHT22;68671;50.084;8.794;2024-03-08T00:23:06;6.30;99.90
9847;DHT22;68671;50.084;8.794;2024-03-08T00:25:35;6.20;99.90
9847;DHT22;68671;50.084;8.794;2024-03-08T00:28:01;6.10;99.90
9847;DHT22;68671;50.084;8.794;2024-03-08T00:30:30;6.10;99.90
9847;DHT22;68671;50.084;8.794;2024-03-08T00:32:57;6.10;99.90
9847;DHT22;68671;50.084;8.794;2024-03-08T00:35:25;6.10;99.90
9847;DHT22;68671;50.084;8.794;2024-03-08T00:37:52;6.00;99.90
9847;DHT22;68671;50.084;8.794;2024-03-08T00:40:21;6.00;99.90
9847;DHT22;68671;50.084;8.794;2024-03-08T00:42:50;5.90;99.90
9847;DHT22;68671;50.084;8.794;2024-03-08T00:45:18;5.90;99.90
9847;DHT22;68671;50.084;8.794;2024-03-08T00:47:45;5.90;99.90
9847;DHT22;68671;50.084;8.794;2024-03-08T00:50:12;5.90;99.90
9847;DHT22;68671;50.084;8.794;2024-03-08T00:52:39;5.80;99.90
9847;DHT22;68671;50.084;8.794;2024-03-08T00:55:07;5.80;99.90
9847;DHT22;68671;50.084;8.794;2024-03-08T00:57:36;5.80;99.90
9847;DHT22;68671;50.084;8.794;2024-03-08T01:00:17;5.70;99.90
9847;DHT22;68671;50.084;8.794;2024-03-08T01:02:45;5.80;99.90
9847;DHT22;68671;50.084;8.794;2024-03-08T01:05:12;5.60;99.90
9847;DHT22;68671;50.084;8.794;2024-03-08T01:07:38;5.80;99.90
9847;DHT22;68671;50.084;8.794;2024-03-08T01:10:06;5.70;99.90
9847;DHT22;68671;50.084;8.794;2024-03-08T01:12:35;5.70;99.90
9847;DHT22;68671;50.084;8.794;2024-03-08T01:15:02;5.60;99.90
9847;DHT22;68671;50.084;8.794;2024-03-08T01:17:31;5.60;99.90
9847;DHT22;68671;50.084;8.794;2024-03-08T01:19:57;5.60;99.90
9847;DHT22;68671;50.084;8.794;2024-03-08T01:22:25;5.60;99.90
9847;DHT22;68671;50.084;8.794;2024-03-08T01:24:53;5.50;99.90
9847;DHT22;68671;50.084;8.794;2024-03-08T01:27:20;5.50;99.90
9847;DHT22;68671;50.084;8.794;2024-03-08T01:30:00;5.50;99.90
9847;DHT22;68671;50.084;8.794;2024-03-08T01:32:27;5.40;99.90
9847;DHT22;68671;50.084;8.794;2024-03-08T01:34:55;5.40;99.90
9847;DHT22;68671;50.084;8.794;2024-03-08T01:37:22;5.30;99.90
9847;DHT22;68671;50.084;8.794;2024-03-08T01:39:49;5.30;99.90
9847;DHT22;68671;50.084;8.794;2024-03-08T01:42:16;5.40;99.90
9847;DHT22;68671;50.084;8.794;2024-03-08T01:44:43;5.30;99.90
9847;DHT22;68671;50.084;8.794;2024-03-08T01:47:10;5.40;99.90
9847;DHT22;68671;50.084;8.794;2024-03-08T01:49:38;5.30;99.90
9847;DHT22;68671;50.084;8.794;2024-03-08T01:52:14;5.20;99.90
9847;DHT22;68671;50.084;8.794;2024-03-08T01:54:42;5.20;99.90
9847;DHT22;68671;50.084;8.794;2024-03-08T01:57:09;5.20;99.90
9847;DHT22;68671;50.084;8.794;2024-03-08T01:59:36;5.20;99.90
9847;DHT22;68671;50.084;8.794;2024-03-08T02:02:04;5.20;99.90
9847;DHT22;68671;50.084;8.794;2024-03-08T02:04:34;5.20;99.90
9847;DHT22;68671;50.084;8.794;2024-03-08T02:07:02;5.20;99.90
9847;DHT22;68671;50.084;8.794;2024-03-08T02:09:32;5.20;99.90
9847;DHT22;68671;50.084;8.794;2024-03-08T02:11:59;5.20;99.90
9847;DHT22;68671;50.084;8.794;2024-03-08T02:14:26;5.20;99.90
9847;DHT22;68671;50.084;8.794;2024-03-08T02:16:53;5.20;99.90
9847;DHT22;68671;50.084;8.794;2024-03-08T02:19:23;5.20;99.90
9847;DHT22;68671;50.084;8.794;2024-03-08T02:21:51;5.20;99.90
9847;DHT22;68671;50.084;8.794;2024-03-08T02:24:19;5.20;99.90
9847;DHT22;68671;50.084;8.794;2024-03-08T02:26:46;5.20;99.90
9847;DHT22;68671;50.084;8.794;2024-03-08T02:29:13;5.10;99.90
9847;DHT22;68671;50.084;8.794;2024-03-08T02:31:41;5.10;99.90
9847;DHT22;68671;50.084;8.794;2024-03-08T02:34:08;5.10;99.90
9847;DHT22;68671;50.084;8.794;2024-03-08T02:36:35;5.10;99.90
9847;DHT22;68671;50.084;8.794;2024-03-08T02:39:04;5.10;99.90
9847;DHT22;68671;50.084;8.794;2024-03-08T02:41:30;5.10;99.90
9847;DHT22;68671;50.084;8.794;2024-03-08T02:43:57;5.10;99.90
9847;DHT22;68671;50.084;8.794;2024-03-08T02:46:25;5.00;99.90
9847;DHT22;68671;50.084;8.794;2024-03-08T02:48:52;5.00;99.90
9847;DHT22;68671;50.084;8.794;2024-03-08T02:51:19;5.10;99.90
9847;DHT22;68671;50.084;8.794;2024-03-08T02:53:46;5.00;99.90
9847;DHT22;68671;50.084;8.794;2024-03-08T02:56:18;5.00;99.90
9847;DHT22;68671;50.084;8.794;2024-03-08T02:58:47;5.00;99.90
9847;DHT22;68671;50.084;8.794;2024-03-08T03:01:14;5.10;99.90
9847;DHT22;68671;50.084;8.794;2024-03-08T03:03:41;5.00;99.90
9847;DHT22;68671;50.084;8.794;2024-03-08T03:06:08;5.00;99.90
9847;DHT22;68671;50.084;8.794;2024-03-08T03:08:35;5.00;99.90
9847;DHT22;68671;50.084;8.794;2024-03-08T03:11:02;5.00;99.90
9847;DHT22;68671;50.084;8.794;2024-03-08T03:13:30;5.00;99.90
9847;DHT22;68671;50.084;8.794;2024-03-08T03:15:59;5.00;99.90
9847;DHT22;68671;50.084;8.794;2024-03-08T03:18:26;5.00;99.90
9847;DHT22;68671;50.084;8.794;2024-03-08T03:20:52;4.90;99.90
9847;DHT22;68671;50.084;8.794;2024-03-08T03:23:19;4.90;99.90
9847;DHT22;68671;50.084;8.794;2024-03-08T03:25:47;4.90;99.90
9847;DHT22;68671;50.084;8.794;2024-03-08T03:28:14;4.80;99.90
9847;DHT22;68671;50.084;8.794;2024-03-08T03:30:45;4.80;99.90
9847;DHT22;68671;50.084;8.794;2024-03-08T03:33:12;4.80;99.90
9847;DHT22;68671;50.084;8.794;2024-03-08T03:35:40;4.80;99.90
9847;DHT22;68671;50.084;8.794;2024-03-08T03:38:08;4.70;99.90
9847;DHT22;68671;50.084;8.794;2024-03-08T03:40:36;4.70;99.90
9847;DHT22;68671;50.084;8.794;2024-03-08T03:43:03;4.70;99.90
9847;DHT22;68671;50.084;8.794;2024-03-08T03:45:30;4.70;99.90
9847;DHT22;68671;50.084;8.794;2024-03-08T03:48:02;4.70;99.90
9847;DHT22;68671;50.084;8.794;2024-03-08T03:50:29;4.70;99.90
9847;DHT22;68671;50.084;8.794;2024-03-08T03:52:56;4.60;99.90
9847;DHT22;68671;50.084;8.794;2024-03-08T03:55:23;4.60;99.90
9847;DHT22;68671;50.084;8.794;2024-03-08T03:57:50;4.60;99.90
9847;DHT22;68671;50.084;8.794;2024-03-08T04:00:18;4.60;99.90
9847;DHT22;68671;50.084;8.794;2024-03-08T04:02:45;4.60;99.90
9847;DHT22;68671;50.084;8.794;2024-03-08T04:05:13;4.60;99.90
9847;DHT22;68671;50.084;8.794;2024-03-08T04:07:40;4.50;99.90
9847;DHT22;68671;50.084;8.794;2024-03-08T04:10:09;4.50;99.90
9847;DHT22;68671;50.084;8.794;2024-03-08T04:12:37;4.50;99.90
9847;DHT22;68671;50.084;8.794;2024-03-08T04:15:05;4.50;99.90
9847;DHT22;68671;50.084;8.794;2024-03-08T04:17:32;4.40;99.90
9847;DHT22;68671;50.084;8.794;2024-03-08T04:20:01;4.40;99.90
9847;DHT22;68671;50.084;8.794;2024-03-08T04:22:34;4.40;99.90
9847;DHT22;68671;50.084;8.794;2024-03-08T04:25:01;4.30;99.90
9847;DHT22;68671;50.084;8.794;2024-03-08T04:27:29;4.30;99.90
9847;DHT22;68671;50.084;8.794;2024-03-08T04:29:56;4.30;99.90
9847;DHT22;68671;50.084;8.794;2024-03-08T04:32:23;4.30;99.90
9847;DHT22;68671;50.084;8.794;2024-03-08T04:34:50;4.30;99.90
9847;DHT22;68671;50.084;8.794;2024-03-08T04:37:17;4.30;99.90
9847;DHT22;68671;50.084;8.794;2024-03-08T04:39:49;4.30;99.90
9847;DHT22;68671;50.084;8.794;2024-03-08T04:42:16;4.30;99.90
9847;DHT22;68671;50.084;8.794;2024-03-08T04:44:43;4.30;99.90
9847;DHT22;68671;50.084;8.794;2024-03-08T04:47:10;4.20;99.90
9847;DHT22;68671;50.084;8.794;2024-03-08T04:49:37;4.20;99.90
9847;DHT22;68671;50.084;8.794;2024-03-08T04:52:05;4.20;99.90
9847;DHT22;68671;50.084;8.794;2024-03-08T04:54:34;4.10;99.90
9847;DHT22;68671;50.084;8.794;2024-03-08T04:57:03;4.10;99.90
9847;DHT22;68671;50.084;8.794;2024-03-08T04:59:30;4.10;99.90
9847;DHT22;68671;50.084;8.794;2024-03-08T05:01:57;4.10;99.90
9847;DHT22;68671;50.084;8.794;2024-03-08T05:04:24;4.10;99.90
9847;DHT22;68671;50.084;8.794;2024-03-08T05:06:51;4.10;99.90
9847;DHT22;68671;50.084;8.794;2024-03-08T05:09:19;4.10;99.90
9847;DHT22;68671;50.084;8.794;2024-03-08T05:11:46;4.10;99.90
9847;DHT22;68671;50.084;8.794;2024-03-08T05:14:15;4.10;99.90
9847;DHT22;68671;50.084;8.794;2024-03-08T05:16:45;4.10;99.90
9847;DHT22;68671;50.084;8.794;2024-03-08T05:19:14;4.10;99.90
9847;DHT22;68671;50.084;8.794;2024-03-08T05:21:42;4.00;99.90
9847;DHT22;68671;50.084;8.794;2024-03-08T05:24:10;4.00;99.90
9847;DHT22;68671;50.084;8.794;2024-03-08T05:26:37;4.00;99.90
9847;DHT22;68671;50.084;8.794;2024-03-08T05:29:04;4.00;99.90
9847;DHT22;68671;50.084;8.794;2024-03-08T05:31:42;4.10;99.90
9847;DHT22;68671;50.084;8.794;2024-03-08T05:34:28;4.00;99.90
9847;DHT22;68671;50.084;8.794;2024-03-08T05:36:58;4.00;99.90
9847;DHT22;68671;50.084;8.794;2024-03-08T05:39:25;4.00;99.90
9847;DHT22;68671;50.084;8.794;2024-03-08T05:41:52;4.00;99.90
9847;DHT22;68671;50.084;8.794;2024-03-08T05:44:20;3.90;99.90
9847;DHT22;68671;50.084;8.794;2024-03-08T05:46:49;4.00;99.90
9847;DHT22;68671;50.084;8.794;2024-03-08T05:49:16;3.90;99.90
9847;DHT22;68671;50.084;8.794;2024-03-08T05:51:44;3.90;99.90
9847;DHT22;68671;50.084;8.794;2024-03-08T05:54:13;3.80;99.90
9847;DHT22;68671;50.084;8.794;2024-03-08T05:56:41;3.90;99.90
9847;DHT22;68671;50.084;8.794;2024-03-08T05:59:10;3.90;99.90
9847;DHT22;68671;50.084;8.794;2024-03-08T06:01:37;4.00;99.90
9847;DHT22;68671;50.084;8.794;2024-03-08T06:04:07;3.90;99.90
9847;DHT22;68671;50.084;8.794;2024-03-08T06:06:34;3.90;99.90
9847;DHT22;68671;50.084;8.794;2024-03-08T06:09:03;3.80;99.90
9847;DHT22;68671;50.084;8.794;2024-03-08T06:11:35;3.80;99.90
9847;DHT22;68671;50.084;8.794;2024-03-08T06:14:03;3.80;99.90
9847;DHT22;68671;50.084;8.794;2024-03-08T06:16:32;3.70;99.90
9847;DHT22;68671;50.084;8.794;2024-03-08T06:18:59;3.80;99.90
9847;DHT22;68671;50.084;8.794;2024-03-08T06:21:29;3.80;99.90
9847;DHT22;68671;50.084;8.794;2024-03-08T06:23:57;3.70;99.90
9847;DHT22;68671;50.084;8.794;2024-03-08T06:26:24;3.80;99.90
9847;DHT22;68671;50.084;8.794;2024-03-08T06:28:54;3.70;99.90
9847;DHT22;68671;50.084;8.794;2024-03-08T06:31:20;3.70;99.90
9847;DHT22;68671;50.084;8.794;2024-03-08T06:33:48;3.70;99.90
9847;DHT22;68671;50.084;8.794;2024-03-08T06:36:16;3.70;99.90
9847;DHT22;68671;50.084;8.794;2024-03-08T06:38:45;3.70;99.90
9847;DHT22;68671;50.084;8.794;2024-03-08T06:41:12;3.70;99.90
9847;DHT22;68671;50.084;8.794;2024-03-08T06:43:41;3.80;99.90
9847;DHT22;68671;50.084;8.794;2024-03-08T06:46:08;3.80;99.90
9847;DHT22;68671;50.084;8.794;2024-03-08T06:48:38;3.80;99.90
9847;DHT22;68671;50.084;8.794;2024-03-08T06:51:05;4.10;99.90
9847;DHT22;68671;50.084;8.794;2024-03-08T06:53:32;4.20;99.90
9847;DHT22;68671;50.084;8.794;2024-03-08T06:56:03;4.50;99.90
9847;DHT22;68671;50.084;8.794;2024-03-08T06:58:31;4.80;99.90
9847;DHT22;68671;50.084;8.794;2024-03-08T07:00:58;5.10;99.90
9847;DHT22;68671;50.084;8.794;2024-03-08T07:03:28;5.40;99.90
9847;DHT22;68671;50.084;8.794;2024-03-08T07:09:04;6.00;99.90
9847;DHT22;68671;50.084;8.794;2024-03-08T07:11:41;6.40;99.90
9847;DHT22;68671;50.084;8.794;2024-03-08T07:14:22;6.70;99.90
9847;DHT22;68671;50.084;8.794;2024-03-08T07:16:55;7.00;99.90
9847;DHT22;68671;50.084;8.794;2024-03-08T07:19:30;7.30;99.90
9847;DHT22;68671;50.084;8.794;2024-03-08T07:21:57;7.60;99.90
9847;DHT22;68671;50.084;8.794;2024-03-08T07:24:24;7.90;99.90
9847;DHT22;68671;50.084;8.794;2024-03-08T07:27:11;8.10;99.90
9847;DHT22;68671;50.084;8.794;2024-03-08T07:29:45;8.10;99.90
9847;DHT22;68671;50.084;8.794;2024-03-08T07:32:15;8.40;99.90
9847;DHT22;68671;50.084;8.794;2024-03-08T07:34:47;8.60;99.90
9847;DHT22;68671;50.084;8.794;2024-03-08T07:37:16;8.80;99.90
9847;DHT22;68671;50.084;8.794;2024-03-08T07:39:56;8.80;99.90
9847;DHT22;68671;50.084;8.794;2024-03-08T07:42:25;8.70;99.90
9847;DHT22;68671;50.084;8.794;2024-03-08T07:44:52;8.70;99.90
9847;DHT22;68671;50.084;8.794;2024-03-08T07:47:19;8.60;99.90
9847;DHT22;68671;50.084;8.794;2024-03-08T07:49:46;8.50;99.90
9847;DHT22;68671;50.084;8.794;2024-03-08T07:52:13;8.40;99.90
9847;DHT22;68671;50.084;8.794;2024-03-08T07:54:43;8.20;99.90
9847;DHT22;68671;50.084;8.794;2024-03-08T07:57:10;8.10;99.90
9847;DHT22;68671;50.084;8.794;2024-03-08T07:59:39;7.90;99.90
9847;DHT22;68671;50.084;8.794;2024-03-08T08:02:06;7.70;99.90
9847;DHT22;68671;50.084;8.794;2024-03-08T08:04:32;7.60;99.90
9847;DHT22;68671;50.084;8.794;2024-03-08T08:06:59;7.50;99.90
9847;DHT22;68671;50.084;8.794;2024-03-08T08:09:27;7.40;99.90
9847;DHT22;68671;50.084;8.794;2024-03-08T08:11:59;7.30;99.90
9847;DHT22;68671;50.084;8.794;2024-03-08T08:14:27;7.20;99.90
9847;DHT22;68671;50.084;8.794;2024-03-08T08:16:56;7.10;99.90
9847;DHT22;68671;50.084;8.794;2024-03-08T08:19:37;7.00;99.90
9847;DHT22;68671;50.084;8.794;2024-03-08T08:22:04;6.90;99.90
9847;DHT22;68671;50.084;8.794;2024-03-08T08:24:34;6.90;99.90
9847;DHT22;68671;50.084;8.794;2024-03-08T08:27:03;6.90;99.90
9847;DHT22;68671;50.084;8.794;2024-03-08T08:29:30;6.90;99.90
9847;DHT22;68671;50.084;8.794;2024-03-08T08:32:00;6.90;99.90
9847;DHT22;68671;50.084;8.794;2024-03-08T08:34:27;6.90;99.90
9847;DHT22;68671;50.084;8.794;2024-03-08T08:36:53;7.00;99.90
9847;DHT22;68671;50.084;8.794;2024-03-08T08:39:21;7.10;99.90
9847;DHT22;68671;50.084;8.794;2024-03-08T08:41:48;7.10;99.90
9847;DHT22;68671;50.084;8.794;2024-03-08T08:44:20;7.20;99.90
9847;DHT22;68671;50.084;8.794;2024-03-08T08:46:57;7.20;99.90
9847;DHT22;68671;50.084;8.794;2024-03-08T08:49:36;7.10;99.90
9847;DHT22;68671;50.084;8.794;2024-03-08T08:52:13;7.10;99.90
9847;DHT22;68671;50.084;8.794;2024-03-08T08:54:42;7.20;99.90
9847;DHT22;68671;50.084;8.794;2024-03-08T08:57:10;7.20;99.90
9847;DHT22;68671;50.084;8.794;2024-03-08T08:59:37;7.20;99.90
9847;DHT22;68671;50.084;8.794;2024-03-08T09:02:13;7.30;99.90
9847;DHT22;68671;50.084;8.794;2024-03-08T09:04:48;7.30;99.90
9847;DHT22;68671;50.084;8.794;2024-03-08T09:07:20;7.40;99.90
9847;DHT22;68671;50.084;8.794;2024-03-08T09:09:54;7.40;99.90
9847;DHT22;68671;50.084;8.794;2024-03-08T09:12:23;7.40;99.90
9847;DHT22;68671;50.084;8.794;2024-03-08T09:14:51;7.50;99.90
9847;DHT22;68671;50.084;8.794;2024-03-08T09:17:21;7.50;99.90
9847;DHT22;68671;50.084;8.794;2024-03-08T09:19:53;7.50;99.90
9847;DHT22;68671;50.084;8.794;2024-03-08T09:22:20;7.50;99.90
9847;DHT22;68671;50.084;8.794;2024-03-08T09:24:48;7.60;99.90
9847;DHT22;68671;50.084;8.794;2024-03-08T09:27:15;7.60;99.90
9847;DHT22;68671;50.084;8.794;2024-03-08T09:29:43;7.60;99.90
9847;DHT22;68671;50.084;8.794;2024-03-08T09:32:11;7.70;99.90
9847;DHT22;68671;50.084;8.794;2024-03-08T09:34:44;7.70;99.90
9847;DHT22;68671;50.084;8.794;2024-03-08T09:37:12;7.80;99.90
9847;DHT22;68671;50.084;8.794;2024-03-08T09:39:40;7.80;99.90
9847;DHT22;68671;50.084;8.794;2024-03-08T09:42:10;7.90;99.90
9847;DHT22;68671;50.084;8.794;2024-03-08T09:44:44;8.00;99.90
9847;DHT22;68671;50.084;8.794;2024-03-08T09:47:13;8.00;99.90
9847;DHT22;68671;50.084;8.794;2024-03-08T09:49:42;8.00;99.90
9847;DHT22;68671;50.084;8.794;2024-03-08T09:52:11;8.00;99.90
9847;DHT22;68671;50.084;8.794;2024-03-08T09:54:39;8.10;99.90
9847;DHT22;68671;50.084;8.794;2024-03-08T09:57:10;8.10;99.90
9847;DHT22;68671;50.084;8.794;2024-03-08T09:59:39;8.20;99.90
9847;DHT22;68671;50.084;8.794;2024-03-08T10:02:35;8.30;99.90
9847;DHT22;68671;50.084;8.794;2024-03-08T10:05:06;8.30;99.90
9847;DHT22;68671;50.084;8.794;2024-03-08T10:07:52;8.40;99.90
9847;DHT22;68671;50.084;8.794;2024-03-08T10:10:32;8.40;99.90
9847;DHT22;68671;50.084;8.794;2024-03-08T10:13:13;8.50;99.90
9847;DHT22;68671;50.084;8.794;2024-03-08T10:16:01;8.50;99.90
9847;DHT22;68671;50.084;8.794;2024-03-08T10:18:36;8.50;99.90
9847;DHT22;68671;50.084;8.794;2024-03-08T10:21:08;8.50;99.90
9847;DHT22;68671;50.084;8.794;2024-03-08T10:33:39;8.80;99.90
9847;DHT22;68671;50.084;8.794;2024-03-08T10:36:07;8.80;99.90
9847;DHT22;68671;50.084;8.794;2024-03-08T10:38:36;8.90;99.90
9847;DHT22;68671;50.084;8.794;2024-03-08T10:41:05;8.90;99.90
9847;DHT22;68671;50.084;8.794;2024-03-08T10:44:07;9.00;99.90
9847;DHT22;68671;50.084;8.794;2024-03-08T10:46:47;9.00;99.90
9847;DHT22;68671;50.084;8.794;2024-03-08T10:49:37;9.00;99.90
9847;DHT22;68671;50.084;8.794;2024-03-08T10:52:15;9.00;99.90
9847;DHT22;68671;50.084;8.794;2024-03-08T10:54:48;9.00;99.90
9847;DHT22;68671;50.084;8.794;2024-03-08T10:57:21;9.00;99.90
9847;DHT22;68671;50.084;8.794;2024-03-08T10:59:50;9.10;99.90
9847;DHT22;68671;50.084;8.794;2024-03-08T11:05:48;9.00;99.90
9847;DHT22;68671;50.084;8.794;2024-03-08T11:20:17;9.20;99.90
9847;DHT22;68671;50.084;8.794;2024-03-08T11:30:08;9.30;99.90
9847;DHT22;68671;50.084;8.794;2024-03-08T11:33:01;9.40;99.90
9847;DHT22;68671;50.084;8.794;2024-03-08T11:35:28;9.40;99.90
9847;DHT22;68671;50.084;8.794;2024-03-08T11:38:01;9.40;99.90
9847;DHT22;68671;50.084;8.794;2024-03-08T11:40:33;9.50;99.90
9847;DHT22;68671;50.084;8.794;2024-03-08T11:45:47;9.60;99.90
9847;DHT22;68671;50.084;8.794;2024-03-08T11:48:15;9.60;99.90
9847;DHT22;68671;50.084;8.794;2024-03-08T11:50:42;9.70;99.90
9847;DHT22;68671;50.084;8.794;2024-03-08T11:53:10;9.70;99.90
9847;DHT22;68671;50.084;8.794;2024-03-08T11:55:43;9.80;99.90
9847;DHT22;68671;50.084;8.794;2024-03-08T11:58:12;9.80;99.90
9847;DHT22;68671;50.084;8.794;2024-03-08T12:00:54;9.90;99.90
9847;DHT22;68671;50.084;8.794;2024-03-08T12:07:38;10.00;99.90
9847;DHT22;68671;50.084;8.794;2024-03-08T12:10:15;10.00;99.90
9847;DHT22;68671;50.084;8.794;2024-03-08T12:12:43;10.00;99.90
9847;DHT22;68671;50.084;8.794;2024-03-08T12:15:12;10.10;99.90
9847;DHT22;68671;50.084;8.794;2024-03-08T12:17:44;10.10;99.90
9847;DHT22;68671;50.084;8.794;2024-03-08T12:20:16;10.10;99.90
9847;DHT22;68671;50.084;8.794;2024-03-08T12:22:43;10.20;99.90
9847;DHT22;68671;50.084;8.794;2024-03-08T12:25:11;10.30;99.90
9847;DHT22;68671;50.084;8.794;2024-03-08T12:43:24;10.70;99.90
9847;DHT22;68671;50.084;8.794;2024-03-08T12:46:01;10.80;99.70
9847;DHT22;68671;50.084;8.794;2024-03-08T12:52:08;10.90;98.60
9847;DHT22;68671;50.084;8.794;2024-03-08T12:54:39;11.00;98.10
9847;DHT22;68671;50.084;8.794;2024-03-08T12:57:07;11.10;97.90
9847;DHT22;68671;50.084;8.794;2024-03-08T12:59:36;11.10;97.90
9847;DHT22;68671;50.084;8.794;2024-03-08T13:02:03;11.10;97.60
9847;DHT22;68671;50.084;8.794;2024-03-08T13:04:32;11.20;96.80
9847;DHT22;68671;50.084;8.794;2024-03-08T13:06:59;11.30;96.20
9847;DHT22;68671;50.084;8.794;2024-03-08T13:09:27;11.40;95.70
9847;DHT22;68671;50.084;8.794;2024-03-08T13:11:54;11.40;95.40
9847;DHT22;68671;50.084;8.794;2024-03-08T13:14:27;11.50;95.00
9847;DHT22;68671;50.084;8.794;2024-03-08T13:16:59;11.50;94.40
9847;DHT22;68671;50.084;8.794;2024-03-08T13:19:26;11.50;94.00
9847;DHT22;68671;50.084;8.794;2024-03-08T13:21:53;11.60;93.90
9847;DHT22;68671;50.084;8.794;2024-03-08T13:24:20;11.60;93.60
9847;DHT22;68671;50.084;8.794;2024-03-08T13:26:47;11.70;93.30
9847;DHT22;68671;50.084;8.794;2024-03-08T13:29:15;11.70;92.90
9847;DHT22;68671;50.084;8.794;2024-03-08T13:31:43;11.80;92.50
9847;DHT22;68671;50.084;8.794;2024-03-08T13:34:13;11.80;92.10
9847;DHT22;68671;50.084;8.794;2024-03-08T13:36:41;11.80;91.70
9847;DHT22;68671;50.084;8.794;2024-03-08T13:39:09;11.90;91.60
9847;DHT22;68671;50.084;8.794;2024-03-08T13:41:40;11.90;91.40
9847;DHT22;68671;50.084;8.794;2024-03-08T13:44:07;12.00;91.20
9847;DHT22;68671;50.084;8.794;2024-03-08T13:46:34;12.00;90.90
9847;DHT22;68671;50.084;8.794;2024-03-08T13:49:04;12.00;90.90
9847;DHT22;68671;50.084;8.794;2024-03-08T13:51:35;12.00;90.80
9847;DHT22;68671;50.084;8.794;2024-03-08T13:54:02;12.10;90.50
9847;DHT22;68671;50.084;8.794;2024-03-08T13:56:32;12.10;90.30
9847;DHT22;68671;50.084;8.794;2024-03-08T13:58:59;12.10;90.00
9847;DHT22;68671;50.084;8.794;2024-03-08T14:01:27;12.10;89.70
9847;DHT22;68671;50.084;8.794;2024-03-08T14:03:55;12.10;89.60
9847;DHT22;68671;50.084;8.794;2024-03-08T14:06:22;12.10;89.50
9847;DHT22;68671;50.084;8.794;2024-03-08T14:08:52;12.10;90.20
9847;DHT22;68671;50.084;8.794;2024-03-08T14:11:23;12.20;89.80
9847;DHT22;68671;50.084;8.794;2024-03-08T14:13:50;12.20;89.60
9847;DHT22;68671;50.084;8.794;2024-03-08T14:16:19;12.20;89.30
9847;DHT22;68671;50.084;8.794;2024-03-08T14:18:46;12.20;89.10
9847;DHT22;68671;50.084;8.794;2024-03-08T14:49:59;12.40;85.80
9847;DHT22;68671;50.084;8.794;2024-03-08T14:52:28;12.30;85.50
9847;DHT22;68671;50.084;8.794;2024-03-08T14:55:00;12.40;85.50
9847;DHT22;68671;50.084;8.794;2024-03-08T14:57:44;12.40;85.60
9847;DHT22;68671;50.084;8.794;2024-03-08T15:00:12;12.40;85.40
9847;DHT22;68671;50.084;8.794;2024-03-08T15:02:43;12.40;85.40
9847;DHT22;68671;50.084;8.794;2024-03-08T15:05:13;12.40;85.50
9847;DHT22;68671;50.084;8.794;2024-03-08T15:07:40;12.40;85.40
9847;DHT22;68671;50.084;8.794;2024-03-08T15:10:08;12.40;85.60
9847;DHT22;68671;50.084;8.794;2024-03-08T15:12:40;12.40;85.70
9847;DHT22;68671;50.084;8.794;2024-03-08T15:15:08;12.40;85.80
9847;DHT22;68671;50.084;8.794;2024-03-08T15:17:36;12.40;85.80
9847;DHT22;68671;50.084;8.794;2024-03-08T15:20:06;12.40;86.00
9847;DHT22;68671;50.084;8.794;2024-03-08T15:22:42;12.40;85.80
9847;DHT22;68671;50.084;8.794;2024-03-08T15:25:10;12.40;85.80
9847;DHT22;68671;50.084;8.794;2024-03-08T15:27:42;12.40;85.90
9847;DHT22;68671;50.084;8.794;2024-03-08T15:30:10;12.40;86.10
9847;DHT22;68671;50.084;8.794;2024-03-08T15:32:39;12.40;86.10
9847;DHT22;68671;50.084;8.794;2024-03-08T15:35:07;12.40;86.20
9847;DHT22;68671;50.084;8.794;2024-03-08T15:37:39;12.40;86.00
9847;DHT22;68671;50.084;8.794;2024-03-08T15:40:10;12.40;85.80
9847;DHT22;68671;50.084;8.794;2024-03-08T15:42:47;12.40;85.60
9847;DHT22;68671;50.084;8.794;2024-03-08T15:45:14;12.40;85.50
9847;DHT22;68671;50.084;8.794;2024-03-08T15:47:41;12.40;85.50
9847;DHT22;68671;50.084;8.794;2024-03-08T15:50:09;12.40;85.30
9847;DHT22;68671;50.084;8.794;2024-03-08T15:52:37;12.30;85.30
9847;DHT22;68671;50.084;8.794;2024-03-08T15:55:07;12.30;85.70
9847;DHT22;68671;50.084;8.794;2024-03-08T15:57:35;12.30;86.10
9847;DHT22;68671;50.084;8.794;2024-03-08T16:00:03;12.30;86.00
9847;DHT22;68671;50.084;8.794;2024-03-08T16:02:44;12.30;86.10
9847;DHT22;68671;50.084;8.794;2024-03-08T16:05:11;12.30;86.20
9847;DHT22;68671;50.084;8.794;2024-03-08T16:07:40;12.30;86.10
9847;DHT22;68671;50.084;8.794;2024-03-08T16:10:08;12.30;86.00
9847;DHT22;68671;50.084;8.794;2024-03-08T16:12:38;12.20;85.90
9847;DHT22;68671;50.084;8.794;2024-03-08T16:15:08;12.20;85.80
9847;DHT22;68671;50.084;8.794;2024-03-08T16:17:35;12.20;85.90
9847;DHT22;68671;50.084;8.794;2024-03-08T16:20:05;12.20;86.20
9847;DHT22;68671;50.084;8.794;2024-03-08T16:22:37;12.10;86.30
9847;DHT22;68671;50.084;8.794;2024-03-08T16:25:05;12.10;86.30
9847;DHT22;68671;50.084;8.794;2024-03-08T16:27:39;12.10;86.60
9847;DHT22;68671;50.084;8.794;2024-03-08T16:30:07;12.10;86.80
9847;DHT22;68671;50.084;8.794;2024-03-08T16:32:44;12.00;86.50
9847;DHT22;68671;50.084;8.794;2024-03-08T16:35:13;12.00;86.60
9847;DHT22;68671;50.084;8.794;2024-03-08T16:37:42;11.90;86.80
9847;DHT22;68671;50.084;8.794;2024-03-08T16:40:10;11.90;86.90
9847;DHT22;68671;50.084;8.794;2024-03-08T16:42:44;11.80;86.80
9847;DHT22;68671;50.084;8.794;2024-03-08T16:45:12;11.80;87.10
9847;DHT22;68671;50.084;8.794;2024-03-08T16:47:40;11.80;87.30
9847;DHT22;68671;50.084;8.794;2024-03-08T16:50:08;11.80;87.30
9847;DHT22;68671;50.084;8.794;2024-03-08T16:52:38;11.70;87.20
9847;DHT22;68671;50.084;8.794;2024-03-08T16:55:06;11.70;87.30
9847;DHT22;68671;50.084;8.794;2024-03-08T16:57:39;11.60;87.30
9847;DHT22;68671;50.084;8.794;2024-03-08T17:00:12;11.60;87.50
9847;DHT22;68671;50.084;8.794;2024-03-08T17:02:40;11.50;87.40
9847;DHT22;68671;50.084;8.794;2024-03-08T17:05:07;11.50;87.40
9847;DHT22;68671;50.084;8.794;2024-03-08T17:07:34;11.50;87.60
9847;DHT22;68671;50.084;8.794;2024-03-08T17:10:01;11.50;87.70
9847;DHT22;68671;50.084;8.794;2024-03-08T17:12:37;11.40;87.60
9847;DHT22;68671;50.084;8.794;2024-03-08T17:15:05;11.40;87.70
9847;DHT22;68671;50.084;8.794;2024-03-08T17:17:33;11.40;87.90
9847;DHT22;68671;50.084;8.794;2024-03-08T17:20:00;11.40;88.00
9847;DHT22;68671;50.084;8.794;2024-03-08T17:22:28;11.40;88.00
9847;DHT22;68671;50.084;8.794;2024-03-08T17:24:55;11.30;88.00
9847;DHT22;68671;50.084;8.794;2024-03-08T17:27:24;11.20;87.90
9847;DHT22;68671;50.084;8.794;2024-03-08T17:29:53;11.20;88.10
9847;DHT22;68671;50.084;8.794;2024-03-08T17:32:20;11.20;88.20
9847;DHT22;68671;50.084;8.794;2024-03-08T17:34:49;11.20;88.40
9847;DHT22;68671;50.084;8.794;2024-03-08T17:37:40;11.20;88.60
9847;DHT22;68671;50.084;8.794;2024-03-08T17:41:05;11.10;88.80
9847;DHT22;68671;50.084;8.794;2024-03-08T17:44:06;11.10;89.10